CheckWX is a tool to help pilots better visualize weather data.  It is not intended as a substitute for an official pre-flight weather briefing.

16:57:31 UTC

DNAK TAF
Akure Airport
Akure, Nigeria
TAF DNAK 180955Z 1812/1918 24010KT 9999 BKN012 TEMPO 1812/1818 BKN012 FEW020CB PROB30 1814/1818 TS BECMG 1819/1821 VRB02KT FEW010

Jun-18@
12:00 UTC

Jun-18 @ 12:00 UTC

Jun-18@
19:00 UTC

Jun-18 @ 19:00 UTC

TAF DNAK 180955Z 1812/1918 24010KT 9999 BKN012
Wind
  • 240° at 10 KTS
Cloud Levels
  • Broken at 1,200' AGL

Jun-18@
12:00 UTC

Jun-18 @ 12:00 UTC

Jun-18@
18:00 UTC

Jun-18 @ 18:00 UTC

TEMPO 1812/1818 BKN012 FEW020CB

Temporary

Temporary Changes expected for less than half the time period

Cloud Levels
  • Broken at 1,200' AGL
  • Few at 2,000' AGL

Jun-18@
14:00 UTC

Jun-18 @ 14:00 UTC

Jun-18@
18:00 UTC

Jun-18 @ 18:00 UTC

PROB30 1814/1818 TS

Probable - 30% Likelihood

Probable - 30% Likelihood during this time.

Conditions
Thunderstorm

Jun-18@
19:00 UTC

Jun-18 @ 19:00 UTC

Jun-19@
18:00 UTC

Jun-19 @ 18:00 UTC

BECMG 1819/1821 VRB02KT FEW010

Becoming

Becoming Conditions expected by Tue, Jun 18, 2019 @ 21:00 UTC

Wind
  • Variable at 2 KTS
Cloud Levels
  • Few at 1,000' AGL